createdAt,value
2018-05-16T00:00:56.346Z,0.00
2018-05-16T00:01:56.394Z,0.00
2018-05-16T00:02:56.392Z,0.00
2018-05-16T00:03:56.426Z,0.00
2018-05-16T00:04:56.459Z,0.00
2018-05-16T00:05:56.493Z,0.00
2018-05-16T00:06:56.525Z,0.00
2018-05-16T00:07:56.558Z,0.00
2018-05-16T00:08:56.594Z,0.00
2018-05-16T00:09:56.625Z,0.00
2018-05-16T00:10:56.658Z,0.00
2018-05-16T00:11:56.694Z,0.00
2018-05-16T00:12:56.724Z,0.00
2018-05-16T00:13:56.758Z,0.00
2018-05-16T00:14:56.789Z,0.00
2018-05-16T00:15:56.822Z,0.00
2018-05-16T00:16:56.856Z,0.00
2018-05-16T00:17:57.107Z,0.00
2018-05-16T00:18:56.939Z,0.00
2018-05-16T00:19:56.955Z,0.00
2018-05-16T00:20:57.008Z,0.00
2018-05-16T00:21:57.038Z,0.00
2018-05-16T00:22:57.054Z,0.00
2018-05-16T00:24:57.144Z,0.00
2018-05-16T00:25:57.151Z,0.00
2018-05-16T00:27:57.236Z,0.00
2018-05-16T00:28:57.250Z,0.00
2018-05-16T00:29:57.283Z,0.00
2018-05-16T00:31:57.652Z,0.00
2018-05-16T00:32:57.384Z,0.00
2018-05-16T00:33:57.417Z,0.00
2018-05-16T00:34:57.446Z,0.00
2018-05-16T00:35:57.479Z,0.00
2018-05-16T00:36:57.512Z,0.00
2018-05-16T00:37:57.545Z,0.00
2018-05-16T00:38:57.598Z,0.00
2018-05-16T00:39:57.628Z,0.00
2018-05-16T00:41:57.698Z,0.00
2018-05-16T00:42:57.726Z,0.00
2018-05-16T00:43:58.270Z,0.00
2018-05-16T00:44:57.772Z,0.00
2018-05-16T00:45:58.333Z,0.00
2018-05-16T00:46:57.856Z,0.00
2018-05-16T00:47:57.894Z,0.00
2018-05-16T00:48:57.926Z,0.00
2018-05-16T00:50:57.985Z,0.00
2018-05-16T00:51:58.021Z,0.00
2018-05-16T00:52:58.051Z,0.00
2018-05-16T00:53:58.066Z,0.00
2018-05-16T00:54:58.098Z,0.00
2018-05-16T00:55:58.129Z,0.00
2018-05-16T00:56:58.188Z,0.00
2018-05-16T00:57:58.195Z,0.00
2018-05-16T00:58:58.226Z,0.00
2018-05-16T00:59:58.260Z,0.00
2018-05-16T01:00:58.292Z,0.00
2018-05-16T01:01:58.325Z,0.00
2018-05-16T01:02:58.357Z,0.00
2018-05-16T01:03:58.405Z,0.00
2018-05-16T01:04:58.426Z,0.00
2018-05-16T01:05:58.879Z,0.00
2018-05-16T01:06:58.505Z,0.00
2018-05-16T01:08:58.754Z,0.00
2018-05-16T01:09:58.990Z,0.00
2018-05-16T01:10:58.636Z,0.00
2018-05-16T01:11:58.667Z,0.00
2018-05-16T01:12:58.701Z,0.00
2018-05-16T01:13:58.716Z,0.00
2018-05-16T01:14:58.764Z,0.00
2018-05-16T01:15:58.779Z,0.00
2018-05-16T01:16:58.814Z,0.00
2018-05-16T01:17:58.863Z,0.00
2018-05-16T01:18:59.077Z,0.00
2018-05-16T01:19:59.111Z,0.00
2018-05-16T01:20:58.941Z,0.00
2018-05-16T01:21:59.176Z,0.00
2018-05-16T01:22:59.027Z,0.00
2018-05-16T01:23:59.443Z,0.00
2018-05-16T01:24:59.090Z,0.00
2018-05-16T01:25:59.124Z,0.00
2018-05-16T01:26:59.162Z,0.00
2018-05-16T01:27:59.265Z,0.00
2018-05-16T01:28:59.219Z,0.00
2018-05-16T01:29:59.234Z,0.00
2018-05-16T01:31:59.298Z,0.00
2018-05-16T01:32:59.333Z,0.00
2018-05-16T01:33:59.566Z,0.00
2018-05-16T01:34:59.416Z,0.00
2018-05-16T01:35:59.631Z,0.00
2018-05-16T01:36:59.787Z,0.00
2018-05-16T01:37:59.494Z,0.00
2018-05-16T01:38:59.544Z,0.00
2018-05-16T01:39:59.594Z,0.00
2018-05-16T01:40:59.917Z,0.00
2018-05-16T01:41:59.624Z,0.00
2018-05-16T01:43:59.916Z,0.00
2018-05-16T01:45:59.771Z,0.00
2018-05-16T01:46:59.807Z,0.00
2018-05-16T01:47:59.840Z,0.00
2018-05-16T01:48:59.851Z,0.00
2018-05-16T01:49:59.903Z,0.00
2018-05-16T01:50:59.933Z,0.00
2018-05-16T01:51:59.948Z,0.00
2018-05-16T01:53:00.205Z,0.00
2018-05-16T01:54:00.035Z,0.00
2018-05-16T01:55:00.065Z,0.00
2018-05-16T01:56:00.099Z,0.00
2018-05-16T01:57:00.434Z,0.00
2018-05-16T01:58:00.468Z,0.00
2018-05-16T01:59:00.904Z,0.00
2018-05-16T02:00:00.229Z,0.00
2018-05-16T02:01:00.259Z,0.00
2018-05-16T02:02:00.291Z,0.00
2018-05-16T02:03:00.304Z,0.00
2018-05-16T02:04:00.539Z,0.00
2018-05-16T02:05:00.390Z,0.00
2018-05-16T02:06:00.403Z,0.00
2018-05-16T02:07:00.455Z,0.00
2018-05-16T02:08:00.466Z,0.00
2018-05-16T02:09:00.499Z,0.00
2018-05-16T02:10:00.553Z,0.00
2018-05-16T02:11:00.562Z,0.00
2018-05-16T02:12:00.595Z,0.00
2018-05-16T02:13:00.848Z,0.00
2018-05-16T02:14:00.659Z,0.00
2018-05-16T02:15:00.692Z,0.00
2018-05-16T02:16:00.946Z,0.00
2018-05-16T02:17:00.774Z,0.00
2018-05-16T02:18:00.806Z,0.00
2018-05-16T02:19:00.840Z,0.00
2018-05-16T02:20:00.878Z,0.00
2018-05-16T02:22:00.938Z,0.00
2018-05-16T02:24:01.008Z,0.00
2018-05-16T02:25:01.237Z,0.00
2018-05-16T02:26:01.066Z,0.00
2018-05-16T02:29:01.163Z,0.00
2018-05-16T02:30:01.706Z,0.00
2018-05-16T02:31:01.431Z,0.00
2018-05-16T02:33:01.493Z,0.00
2018-05-16T02:36:01.391Z,0.00
2018-05-16T02:37:01.429Z,0.00
2018-05-16T02:38:01.764Z,0.00
2018-05-16T02:40:01.525Z,0.00
2018-05-16T02:41:01.552Z,0.00
2018-05-16T02:42:01.985Z,0.00
2018-05-16T02:43:01.609Z,0.00
2018-05-16T02:44:01.949Z,0.00
2018-05-16T02:45:01.678Z,0.00
2018-05-16T02:48:01.752Z,0.00
2018-05-16T02:49:01.786Z,0.00
2018-05-16T02:50:01.817Z,0.00
2018-05-16T02:51:01.848Z,0.00
2018-05-16T02:52:01.883Z,0.00
2018-05-16T02:53:01.914Z,0.00
2018-05-16T02:54:01.945Z,0.00
2018-05-16T02:55:01.977Z,0.00
2018-05-16T02:56:02.008Z,0.00
2018-05-16T02:57:02.044Z,0.00
2018-05-16T02:58:02.072Z,0.00
2018-05-16T02:59:02.103Z,0.00
2018-05-16T03:00:02.135Z,0.00
2018-05-16T03:01:02.169Z,0.00
2018-05-16T03:02:02.199Z,0.00
2018-05-16T03:03:02.250Z,0.00
2018-05-16T03:04:02.470Z,0.00
2018-05-16T03:06:02.328Z,0.00
2018-05-16T03:07:02.582Z,0.00
2018-05-16T03:08:02.390Z,0.00
2018-05-16T03:09:02.425Z,0.00
2018-05-16T03:10:02.657Z,0.00
2018-05-16T03:11:02.713Z,0.00
2018-05-16T03:12:02.518Z,0.00
2018-05-16T03:13:02.551Z,0.00
2018-05-16T03:14:02.583Z,0.00
2018-05-16T03:15:02.614Z,0.00
2018-05-16T03:16:02.646Z,0.00
2018-05-16T03:17:02.695Z,0.00
2018-05-16T03:19:02.740Z,0.00
2018-05-16T03:20:03.097Z,0.00
2018-05-16T03:21:03.031Z,0.00
2018-05-16T03:23:03.398Z,0.00
2018-05-16T03:24:02.902Z,0.00
2018-05-16T03:25:02.932Z,0.00
2018-05-16T03:26:02.966Z,0.00
2018-05-16T03:27:02.995Z,0.00
2018-05-16T03:28:03.027Z,0.00
2018-05-16T03:29:03.059Z,0.00
2018-05-16T03:30:03.093Z,0.00
2018-05-16T03:31:03.123Z,0.00
2018-05-16T03:32:03.154Z,0.00
2018-05-16T03:33:03.186Z,0.00
2018-05-16T03:34:03.219Z,0.00
2018-05-16T03:35:03.250Z,0.00
2018-05-16T03:36:03.282Z,0.00
2018-05-16T03:37:03.314Z,0.00
2018-05-16T03:38:03.346Z,0.00
2018-05-16T03:39:03.378Z,0.00
2018-05-16T03:40:03.408Z,0.00
2018-05-16T03:41:03.441Z,0.00
2018-05-16T03:42:03.473Z,0.00
2018-05-16T03:43:03.505Z,0.00
2018-05-16T03:44:03.538Z,0.00
2018-05-16T03:45:03.569Z,0.00
2018-05-16T03:46:03.601Z,0.00
2018-05-16T03:47:03.839Z,0.00
2018-05-16T03:48:03.664Z,0.00
2018-05-16T03:49:03.696Z,0.00
2018-05-16T03:50:03.728Z,0.00
2018-05-16T03:51:03.759Z,0.00
2018-05-16T03:52:03.874Z,0.00
2018-05-16T03:53:03.823Z,0.00
2018-05-16T03:54:03.857Z,0.00
2018-05-16T03:55:03.887Z,0.00
2018-05-16T03:56:03.920Z,0.00
2018-05-16T03:57:03.951Z,0.00
2018-05-16T03:58:03.984Z,0.00
2018-05-16T03:59:04.015Z,0.00
2018-05-16T04:00:04.048Z,5.63
2018-05-16T04:01:04.082Z,5.63
2018-05-16T04:02:04.113Z,5.63
2018-05-16T04:03:04.143Z,5.63
2018-05-16T04:04:04.176Z,5.63
2018-05-16T04:05:04.207Z,5.63
2018-05-16T04:06:04.241Z,0.00
2018-05-16T04:07:04.271Z,0.00
2018-05-16T04:08:04.304Z,0.00
2018-05-16T04:09:04.337Z,0.00
2018-05-16T04:10:04.369Z,0.00
2018-05-16T04:11:04.399Z,5.63
2018-05-16T04:12:04.433Z,5.63
2018-05-16T04:13:04.466Z,5.63
2018-05-16T04:14:04.503Z,5.63
2018-05-16T04:15:04.529Z,5.63
2018-05-16T04:16:04.561Z,11.25
2018-05-16T04:17:04.593Z,11.25
2018-05-16T04:18:04.626Z,11.25
2018-05-16T04:19:04.658Z,5.63
2018-05-16T04:20:04.895Z,5.63
2018-05-16T04:21:04.725Z,5.63
2018-05-16T04:22:04.753Z,5.63
2018-05-16T04:23:04.785Z,5.63
2018-05-16T04:24:04.820Z,5.63
2018-05-16T04:25:04.855Z,5.63
2018-05-16T04:26:04.884Z,0.00
2018-05-16T04:27:04.915Z,0.00
2018-05-16T04:28:04.948Z,0.00
2018-05-16T04:29:04.980Z,0.00
2018-05-16T04:30:05.012Z,5.63
2018-05-16T04:31:05.048Z,5.63
2018-05-16T04:32:05.076Z,5.63
2018-05-16T04:33:05.109Z,5.63
2018-05-16T04:34:05.141Z,5.63
2018-05-16T04:35:05.174Z,5.63
2018-05-16T04:36:05.206Z,5.63
2018-05-16T04:37:05.237Z,5.63
2018-05-16T04:38:05.271Z,5.63
2018-05-16T04:39:05.301Z,5.63
2018-05-16T04:40:05.537Z,5.63
2018-05-16T04:41:05.370Z,5.63
2018-05-16T04:42:05.399Z,5.63
2018-05-16T04:43:05.431Z,5.63
2018-05-16T04:44:05.464Z,11.25
2018-05-16T04:45:05.517Z,11.25
2018-05-16T04:46:05.531Z,11.25
2018-05-16T04:47:05.560Z,11.25
2018-05-16T04:48:05.593Z,11.25
2018-05-16T04:49:05.626Z,11.25
2018-05-16T04:50:05.659Z,11.25
2018-05-16T04:51:05.690Z,11.25
2018-05-16T04:52:05.721Z,16.88
2018-05-16T04:53:05.755Z,22.50
2018-05-16T04:54:05.787Z,22.50
2018-05-16T04:55:05.819Z,22.50
2018-05-16T04:56:05.851Z,28.13
2018-05-16T04:57:05.883Z,28.13
2018-05-16T04:58:05.917Z,33.75
2018-05-16T04:59:06.044Z,33.75
2018-05-16T05:00:05.980Z,33.75
2018-05-16T05:01:06.015Z,33.75
2018-05-16T05:02:06.046Z,33.75
2018-05-16T05:03:06.079Z,33.75
2018-05-16T05:04:06.111Z,33.75
2018-05-16T05:05:06.147Z,28.13
2018-05-16T05:06:06.177Z,28.13
2018-05-16T05:07:06.210Z,28.13
2018-05-16T05:08:06.242Z,28.13
2018-05-16T05:09:06.278Z,22.50
2018-05-16T05:10:06.310Z,22.50
2018-05-16T05:11:06.339Z,22.50
2018-05-16T05:12:06.378Z,22.50
2018-05-16T05:13:06.413Z,22.50
2018-05-16T05:14:06.437Z,22.50
2018-05-16T05:15:06.470Z,22.50
2018-05-16T05:16:06.503Z,22.50
2018-05-16T05:17:06.536Z,22.50
2018-05-16T05:18:06.620Z,22.50
2018-05-16T05:19:06.602Z,22.50
2018-05-16T05:20:06.635Z,22.50
2018-05-16T05:21:06.668Z,28.13
2018-05-16T05:22:06.701Z,28.13
2018-05-16T05:23:06.734Z,28.13
2018-05-16T05:24:06.799Z,33.75
2018-05-16T05:25:06.800Z,33.75
2018-05-16T05:26:07.035Z,33.75
2018-05-16T05:27:06.866Z,33.75
2018-05-16T05:28:06.902Z,33.75
2018-05-16T05:29:06.934Z,33.75
2018-05-16T05:30:06.965Z,33.75
2018-05-16T05:31:06.997Z,33.75
2018-05-16T05:32:07.030Z,28.13
2018-05-16T05:33:07.064Z,28.13
2018-05-16T05:34:07.096Z,28.13
2018-05-16T05:35:07.129Z,28.13
2018-05-16T05:36:07.163Z,28.13
2018-05-16T05:37:07.196Z,28.13
2018-05-16T05:38:07.227Z,28.13
2018-05-16T05:39:07.260Z,28.13
2018-05-16T05:40:07.293Z,28.13
2018-05-16T05:41:07.327Z,33.75
2018-05-16T05:42:07.359Z,33.75
2018-05-16T05:43:07.392Z,33.75
2018-05-16T05:44:07.425Z,33.75
2018-05-16T05:45:07.458Z,28.13
2018-05-16T05:46:07.492Z,22.50
2018-05-16T05:47:07.523Z,16.88
2018-05-16T05:48:07.556Z,16.88
2018-05-16T05:49:07.625Z,16.88
2018-05-16T05:50:07.624Z,16.88
2018-05-16T05:51:07.655Z,16.88
2018-05-16T05:52:07.708Z,16.88
2018-05-16T05:53:07.722Z,16.88
2018-05-16T05:54:07.755Z,11.25
2018-05-16T05:55:07.788Z,16.88
2018-05-16T05:56:07.822Z,28.13
2018-05-16T05:57:07.853Z,33.75
2018-05-16T05:58:07.891Z,39.38
2018-05-16T05:59:07.919Z,45.00
2018-05-16T06:00:08.020Z,45.00
2018-05-16T06:01:07.984Z,39.38
2018-05-16T06:02:08.035Z,39.38
2018-05-16T06:03:08.050Z,39.38
2018-05-16T06:04:08.082Z,45.00
2018-05-16T06:05:08.117Z,50.63
2018-05-16T06:06:08.149Z,56.25
2018-05-16T06:07:08.182Z,61.88
2018-05-16T06:08:08.236Z,61.88
2018-05-16T06:09:08.248Z,67.50
2018-05-16T06:10:08.281Z,67.50
2018-05-16T06:11:08.313Z,73.13
2018-05-16T06:12:08.345Z,73.13
2018-05-16T06:13:08.380Z,78.75
2018-05-16T06:14:08.413Z,78.75
2018-05-16T06:15:08.445Z,73.13
2018-05-16T06:16:08.479Z,61.88
2018-05-16T06:17:08.513Z,61.88
2018-05-16T06:18:08.545Z,61.88
2018-05-16T06:19:08.577Z,61.88
2018-05-16T06:20:08.611Z,61.88
2018-05-16T06:21:08.644Z,56.25
2018-05-16T06:23:08.708Z,56.25
2018-05-16T06:24:08.744Z,56.25
2018-05-16T06:25:08.775Z,61.88
2018-05-16T06:26:08.808Z,61.88
2018-05-16T06:27:08.898Z,61.88
2018-05-16T06:28:08.873Z,56.25
2018-05-16T06:29:08.908Z,50.63
2018-05-16T06:30:08.941Z,45.00
2018-05-16T06:31:08.973Z,45.00
2018-05-16T06:32:09.007Z,45.00
2018-05-16T06:33:09.040Z,45.00
2018-05-16T06:34:09.074Z,45.00
2018-05-16T06:35:09.105Z,39.38
2018-05-16T06:36:09.140Z,39.38
2018-05-16T06:37:09.173Z,39.38
2018-05-16T06:38:09.206Z,39.38
2018-05-16T06:39:09.251Z,33.75
2018-05-16T06:40:09.272Z,33.75
2018-05-16T06:41:09.306Z,28.13
2018-05-16T06:42:09.339Z,33.75
2018-05-16T06:43:09.379Z,33.75
2018-05-16T06:44:09.405Z,33.75
2018-05-16T06:45:09.442Z,33.75
2018-05-16T06:46:09.471Z,39.38
2018-05-16T06:47:09.504Z,39.38
2018-05-16T06:48:09.536Z,39.38
2018-05-16T06:49:09.570Z,39.38
2018-05-16T06:50:09.621Z,39.38
2018-05-16T06:51:09.636Z,45.00
2018-05-16T06:52:09.670Z,50.63
2018-05-16T06:53:09.703Z,56.25
2018-05-16T06:54:09.738Z,67.50
2018-05-16T06:55:09.769Z,73.13
2018-05-16T06:56:09.804Z,78.75
2018-05-16T06:57:09.837Z,78.75
2018-05-16T06:58:09.870Z,78.75
2018-05-16T06:59:09.902Z,73.13
2018-05-16T07:00:09.936Z,73.13
2018-05-16T07:01:09.970Z,73.13
2018-05-16T07:02:10.002Z,78.75
2018-05-16T07:03:10.040Z,78.75
2018-05-16T07:04:10.127Z,78.75
2018-05-16T07:05:10.103Z,78.75
2018-05-16T07:06:10.217Z,84.38
2018-05-16T07:07:10.169Z,84.38
2018-05-16T07:08:10.202Z,90.00
2018-05-16T07:09:10.236Z,90.00
2018-05-16T07:10:10.272Z,95.63
2018-05-16T07:11:10.304Z,101.25
2018-05-16T07:12:10.335Z,106.88
2018-05-16T07:13:10.368Z,112.50
2018-05-16T07:14:10.403Z,112.50
2018-05-16T07:15:10.436Z,118.13
2018-05-16T07:16:10.469Z,118.13
2018-05-16T07:17:10.502Z,123.75
2018-05-16T07:18:10.537Z,129.38
2018-05-16T07:19:10.569Z,135.00
2018-05-16T07:20:10.603Z,146.25
2018-05-16T07:21:10.636Z,146.25
2018-05-16T07:22:10.672Z,146.25
2018-05-16T07:23:10.704Z,140.63
2018-05-16T07:24:10.736Z,140.63
2018-05-16T07:25:10.771Z,140.63
2018-05-16T07:26:10.803Z,135.00
2018-05-16T07:27:10.839Z,129.38
2018-05-16T07:28:10.871Z,123.75
2018-05-16T07:29:10.905Z,118.13
2018-05-16T07:30:10.938Z,118.13
2018-05-16T07:31:10.972Z,118.13
2018-05-16T07:32:11.004Z,118.13
2018-05-16T07:33:11.039Z,118.13
2018-05-16T07:34:11.072Z,129.38
2018-05-16T07:35:11.106Z,140.63
2018-05-16T07:36:11.140Z,151.88
2018-05-16T07:37:11.173Z,185.63
2018-05-16T07:38:11.207Z,213.75
2018-05-16T07:39:11.241Z,236.25
2018-05-16T07:40:11.275Z,258.75
2018-05-16T07:41:11.351Z,270.00
2018-05-16T07:42:11.343Z,286.88
2018-05-16T07:43:11.375Z,298.13
2018-05-16T07:44:11.410Z,309.38
2018-05-16T07:45:11.444Z,326.25
2018-05-16T07:46:11.480Z,348.75
2018-05-16T07:47:11.602Z,365.63
2018-05-16T07:48:11.546Z,360.00
2018-05-16T07:49:11.580Z,354.38
2018-05-16T07:50:11.616Z,337.50
2018-05-16T07:51:11.744Z,326.25
2018-05-16T07:52:11.685Z,320.63
2018-05-16T07:53:11.720Z,315.00
2018-05-16T07:54:11.755Z,303.75
2018-05-16T07:55:11.789Z,298.13
2018-05-16T07:56:11.823Z,298.13
2018-05-16T07:57:11.857Z,292.50
2018-05-16T07:58:11.893Z,286.88
2018-05-16T07:59:11.928Z,275.63
2018-05-16T08:00:11.963Z,275.63
2018-05-16T08:01:12.000Z,275.63
2018-05-16T08:02:12.033Z,281.25
2018-05-16T08:03:12.083Z,281.25
2018-05-16T08:04:12.104Z,298.13
2018-05-16T08:05:12.139Z,303.75
2018-05-16T08:06:12.175Z,303.75
2018-05-16T08:07:12.208Z,309.38
2018-05-16T08:08:12.245Z,309.38
2018-05-16T08:09:12.282Z,326.25
2018-05-16T08:10:12.316Z,360.00
2018-05-16T08:11:12.351Z,376.88
2018-05-16T08:12:12.428Z,376.88
2018-05-16T08:13:12.421Z,365.63
2018-05-16T08:14:12.459Z,354.38
2018-05-16T08:15:12.493Z,320.63
2018-05-16T08:16:12.533Z,309.38
2018-05-16T08:17:12.568Z,315.00
2018-05-16T08:18:12.602Z,298.13
2018-05-16T08:19:12.839Z,270.00
2018-05-16T08:20:12.673Z,241.88
2018-05-16T08:21:12.708Z,230.63
2018-05-16T08:22:12.744Z,202.50
2018-05-16T08:23:12.781Z,191.25
2018-05-16T08:24:12.818Z,185.63
2018-05-16T08:25:12.855Z,185.63
2018-05-16T08:26:12.889Z,185.63
2018-05-16T08:27:12.923Z,196.88
2018-05-16T08:28:12.959Z,202.50
2018-05-16T08:29:12.996Z,225.00
2018-05-16T08:30:13.031Z,247.50
2018-05-16T08:31:13.161Z,241.88
2018-05-16T08:32:13.110Z,253.13
2018-05-16T08:33:13.138Z,253.13
2018-05-16T08:34:13.175Z,236.25
2018-05-16T08:35:13.210Z,253.13
2018-05-16T08:36:13.245Z,264.38
2018-05-16T08:37:13.284Z,270.00
2018-05-16T08:38:13.317Z,264.38
2018-05-16T08:39:13.353Z,264.38
2018-05-16T08:40:13.389Z,270.00
2018-05-16T08:41:13.426Z,270.00
2018-05-16T08:42:13.459Z,270.00
2018-05-16T08:43:13.495Z,264.38
2018-05-16T08:44:13.530Z,247.50
2018-05-16T08:45:13.567Z,247.50
2018-05-16T08:46:13.602Z,253.13
2018-05-16T08:47:13.637Z,253.13
2018-05-16T08:48:13.673Z,253.13
2018-05-16T08:49:13.710Z,247.50
2018-05-16T08:50:13.768Z,247.50
2018-05-16T08:51:13.781Z,241.88
2018-05-16T08:52:13.817Z,230.63
2018-05-16T08:53:13.852Z,225.00
2018-05-16T08:54:13.887Z,225.00
2018-05-16T08:55:13.923Z,219.38
2018-05-16T08:56:13.957Z,219.38
2018-05-16T08:57:13.994Z,219.38
2018-05-16T08:58:14.030Z,219.38
2018-05-16T08:59:14.064Z,225.00
2018-05-16T09:00:14.099Z,236.25
2018-05-16T09:01:14.160Z,241.88
2018-05-16T09:02:14.194Z,236.25
2018-05-16T09:03:14.205Z,213.75
2018-05-16T09:04:14.242Z,202.50
2018-05-16T09:05:14.276Z,185.63
2018-05-16T09:06:14.313Z,180.00
2018-05-16T09:07:14.348Z,180.00
2018-05-16T09:08:14.383Z,174.38
2018-05-16T09:09:14.419Z,168.75
2018-05-16T09:10:14.456Z,163.13
2018-05-16T09:11:14.487Z,157.50
2018-05-16T09:12:14.524Z,151.88
2018-05-16T09:13:14.559Z,151.88
2018-05-16T09:14:14.616Z,146.25
2018-05-16T09:15:14.647Z,140.63
2018-05-16T09:16:14.663Z,135.00
2018-05-16T09:17:14.775Z,123.75
2018-05-16T09:18:14.735Z,112.50
2018-05-16T09:19:14.787Z,106.88
2018-05-16T09:20:14.803Z,101.25
2018-05-16T09:21:14.839Z,106.88
2018-05-16T09:22:14.873Z,112.50
2018-05-16T09:23:14.907Z,112.50
2018-05-16T09:24:14.946Z,112.50
2018-05-16T09:25:15.060Z,112.50
2018-05-16T09:26:15.013Z,106.88
2018-05-16T09:27:15.067Z,101.25
2018-05-16T09:28:15.082Z,106.88
2018-05-16T09:29:15.440Z,101.25
2018-05-16T09:30:15.170Z,101.25
2018-05-16T09:31:15.186Z,95.63
2018-05-16T09:32:15.220Z,95.63
2018-05-16T09:33:15.256Z,95.63
2018-05-16T09:34:15.289Z,101.25
2018-05-16T09:35:15.324Z,106.88
2018-05-16T09:36:15.382Z,106.88
2018-05-16T09:37:15.394Z,112.50
2018-05-16T09:38:15.429Z,118.13
2018-05-16T09:39:15.462Z,123.75
2018-05-16T09:40:15.526Z,135.00
2018-05-16T09:41:15.531Z,146.25
2018-05-16T09:42:15.565Z,157.50
2018-05-16T09:43:15.603Z,180.00
2018-05-16T09:44:16.039Z,202.50
2018-05-16T09:45:15.994Z,213.75
2018-05-16T09:46:15.704Z,230.63
2018-05-16T09:47:15.736Z,258.75
2018-05-16T09:48:15.793Z,309.38
2018-05-16T09:49:15.831Z,365.63
2018-05-16T09:50:15.863Z,410.63
2018-05-16T09:51:16.076Z,450.00
2018-05-16T09:52:15.932Z,483.75
2018-05-16T09:53:15.962Z,523.13
2018-05-16T09:54:15.995Z,545.63
2018-05-16T09:55:16.013Z,556.88
2018-05-16T09:56:16.048Z,568.13
2018-05-16T09:57:16.083Z,545.63
2018-05-16T09:58:16.134Z,511.88
2018-05-16T09:59:16.162Z,478.13
2018-05-16T10:00:16.188Z,495.00
2018-05-16T10:01:16.225Z,523.13
2018-05-16T10:02:16.261Z,545.63
2018-05-16T10:03:16.315Z,556.88
2018-05-16T10:04:16.352Z,585.00
2018-05-16T10:05:16.369Z,596.25
2018-05-16T10:06:16.405Z,585.00
2018-05-16T10:07:16.459Z,562.50
2018-05-16T10:08:16.476Z,545.63
2018-05-16T10:09:16.516Z,506.25
2018-05-16T10:10:16.569Z,455.63
2018-05-16T10:11:16.587Z,455.63
2018-05-16T10:12:16.623Z,472.50
2018-05-16T10:13:16.660Z,495.00
2018-05-16T10:14:16.697Z,506.25
2018-05-16T10:15:16.734Z,517.50
2018-05-16T10:16:16.771Z,528.75
2018-05-16T10:17:16.808Z,545.63
2018-05-16T10:18:19.670Z,562.50
2018-05-16T10:19:16.882Z,579.38
2018-05-16T10:20:16.950Z,596.25
2018-05-16T10:21:16.955Z,613.13
2018-05-16T10:22:16.992Z,618.75
2018-05-16T10:23:17.031Z,607.50
2018-05-16T10:24:17.067Z,596.25
2018-05-16T10:25:17.107Z,613.13
2018-05-16T10:26:17.143Z,624.38
2018-05-16T10:27:17.179Z,646.88
2018-05-16T10:28:17.216Z,686.25
2018-05-16T10:29:17.255Z,742.50
2018-05-16T10:30:17.292Z,832.50
2018-05-16T10:31:17.329Z,736.88
2018-05-16T10:32:17.368Z,641.25
2018-05-16T10:33:17.413Z,618.75
2018-05-16T10:34:17.579Z,725.63
2018-05-16T10:35:17.482Z,888.75
2018-05-16T10:36:17.521Z,596.25
2018-05-16T10:37:17.559Z,506.25
2018-05-16T10:38:17.601Z,455.63
2018-05-16T10:39:17.635Z,466.88
2018-05-16T10:40:17.673Z,472.50
2018-05-16T10:41:17.751Z,455.63
2018-05-16T10:42:17.751Z,427.50
2018-05-16T10:43:17.788Z,416.25
2018-05-16T10:44:17.828Z,399.38
2018-05-16T10:45:17.868Z,382.50
2018-05-16T10:46:17.905Z,388.13
2018-05-16T10:47:17.941Z,416.25
2018-05-16T10:48:17.980Z,466.88
2018-05-16T10:49:18.019Z,551.25
2018-05-16T10:50:18.057Z,635.63
2018-05-16T10:51:18.094Z,675.00
2018-05-16T10:52:18.222Z,635.63
2018-05-16T10:53:18.172Z,590.63
2018-05-16T10:54:18.210Z,540.00
2018-05-16T10:55:18.248Z,500.63
2018-05-16T10:56:18.286Z,461.25
2018-05-16T10:57:18.397Z,461.25
2018-05-16T10:58:18.366Z,466.88
2018-05-16T10:59:18.401Z,478.13
2018-05-16T11:00:18.439Z,478.13
2018-05-16T11:01:18.478Z,427.50
2018-05-16T11:02:18.518Z,433.13
2018-05-16T11:03:18.652Z,466.88
2018-05-16T11:04:18.594Z,540.00
2018-05-16T11:05:18.635Z,658.13
2018-05-16T11:06:18.670Z,916.88
2018-05-16T11:07:18.709Z,1861.88
2018-05-16T11:08:18.751Z,2626.88
2018-05-16T11:09:18.789Z,1732.50
2018-05-16T11:10:18.826Z,2165.63
2018-05-16T11:11:18.864Z,1479.38
2018-05-16T11:12:18.906Z,1102.50
2018-05-16T11:13:18.948Z,1265.63
2018-05-16T11:14:18.987Z,765.00
2018-05-16T11:15:19.027Z,663.75
2018-05-16T11:16:19.077Z,607.50
2018-05-16T11:17:19.110Z,590.63
2018-05-16T11:18:19.152Z,579.38
2018-05-16T11:19:19.192Z,568.13
2018-05-16T11:20:19.238Z,585.00
2018-05-16T11:21:19.367Z,573.75
2018-05-16T11:22:19.315Z,562.50
2018-05-16T11:23:19.356Z,523.13
2018-05-16T11:24:19.398Z,444.38
2018-05-16T11:25:19.438Z,388.13
2018-05-16T11:26:19.480Z,354.38
2018-05-16T11:27:19.519Z,331.88
2018-05-16T11:28:19.561Z,326.25
2018-05-16T11:29:19.609Z,354.38
2018-05-16T11:30:19.641Z,393.75
2018-05-16T11:31:19.683Z,438.75
2018-05-16T11:32:19.725Z,495.00
2018-05-16T11:33:19.763Z,534.38
2018-05-16T11:34:19.803Z,534.38
2018-05-16T11:35:19.842Z,523.13
2018-05-16T11:36:19.881Z,506.25
2018-05-16T11:37:19.924Z,472.50
2018-05-16T11:38:19.964Z,438.75
2018-05-16T11:39:20.002Z,433.13
2018-05-16T11:40:20.044Z,416.25
2018-05-16T11:41:20.082Z,416.25
2018-05-16T11:42:20.135Z,416.25
2018-05-16T11:43:20.163Z,388.13
2018-05-16T11:44:20.200Z,382.50
2018-05-16T11:45:20.241Z,405.00
2018-05-16T11:46:20.280Z,461.25
2018-05-16T11:47:20.319Z,517.50
2018-05-16T11:48:20.360Z,596.25
2018-05-16T11:49:20.398Z,618.75
2018-05-16T11:50:20.438Z,590.63
2018-05-16T11:51:20.477Z,551.25
2018-05-16T11:52:20.519Z,528.75
2018-05-16T11:53:20.556Z,483.75
2018-05-16T11:54:20.595Z,433.13
2018-05-16T11:55:20.634Z,382.50
2018-05-16T11:56:20.674Z,354.38
2018-05-16T11:57:20.715Z,343.13
2018-05-16T11:58:20.755Z,337.50
2018-05-16T11:59:20.905Z,331.88
2018-05-16T12:00:20.832Z,315.00
2018-05-16T12:01:20.872Z,292.50
2018-05-16T12:02:20.911Z,270.00
2018-05-16T12:03:20.948Z,253.13
2018-05-16T12:04:20.988Z,241.88
2018-05-16T12:05:21.028Z,230.63
2018-05-16T12:06:21.070Z,230.63
2018-05-16T12:07:21.104Z,230.63
2018-05-16T12:08:21.149Z,241.88
2018-05-16T12:09:21.182Z,253.13
2018-05-16T12:10:21.221Z,270.00
2018-05-16T12:11:21.269Z,292.50
2018-05-16T12:12:21.299Z,309.38
2018-05-16T12:13:21.336Z,337.50
2018-05-16T12:14:21.377Z,376.88
2018-05-16T12:15:21.414Z,393.75
2018-05-16T12:16:21.452Z,410.63
2018-05-16T12:17:21.491Z,427.50
2018-05-16T12:18:21.530Z,438.75
2018-05-16T12:19:21.569Z,444.38
2018-05-16T12:20:21.604Z,438.75
2018-05-16T12:21:21.642Z,438.75
2018-05-16T12:22:21.681Z,421.88
2018-05-16T12:23:21.720Z,416.25
2018-05-16T12:24:21.758Z,421.88
2018-05-16T12:25:21.795Z,427.50
2018-05-16T12:26:21.839Z,438.75
2018-05-16T12:27:21.873Z,450.00
2018-05-16T12:28:21.910Z,466.88
2018-05-16T12:29:21.987Z,478.13
2018-05-16T12:30:21.987Z,500.63
2018-05-16T12:31:22.025Z,517.50
2018-05-16T12:32:22.064Z,540.00
2018-05-16T12:33:22.102Z,556.88
2018-05-16T12:34:22.140Z,562.50
2018-05-16T12:35:22.178Z,562.50
2018-05-16T12:36:22.216Z,545.63
2018-05-16T12:37:22.261Z,534.38
2018-05-16T12:38:22.295Z,517.50
2018-05-16T12:39:22.333Z,511.88
2018-05-16T12:40:22.372Z,511.88
2018-05-16T12:41:22.411Z,517.50
2018-05-16T12:42:22.452Z,528.75
2018-05-16T12:43:22.487Z,545.63
2018-05-16T12:44:22.525Z,562.50
2018-05-16T12:45:22.568Z,585.00
2018-05-16T12:46:22.604Z,596.25
2018-05-16T12:47:22.642Z,624.38
2018-05-16T12:48:22.680Z,663.75
2018-05-16T12:49:22.726Z,725.63
2018-05-16T12:50:22.759Z,810.00
2018-05-16T12:51:22.800Z,905.63
2018-05-16T12:52:22.839Z,973.13
2018-05-16T12:53:22.877Z,1068.75
2018-05-16T12:54:22.924Z,1136.25
2018-05-16T12:55:22.955Z,1113.75
2018-05-16T12:56:22.995Z,1113.75
2018-05-16T12:57:23.035Z,1096.88
2018-05-16T12:58:23.076Z,1074.38
2018-05-16T12:59:23.115Z,1074.38
2018-05-16T13:00:23.155Z,1012.50
2018-05-16T13:01:23.199Z,1012.50
2018-05-16T13:02:23.238Z,995.63
2018-05-16T13:03:23.277Z,950.63
2018-05-16T13:04:23.320Z,916.88
2018-05-16T13:05:23.360Z,888.75
2018-05-16T13:06:23.402Z,916.88
2018-05-16T13:07:23.528Z,1029.38
2018-05-16T13:08:23.485Z,2857.50
2018-05-16T13:09:23.529Z,2925.00
2018-05-16T13:10:23.569Z,1648.13
2018-05-16T13:11:23.610Z,1147.50
2018-05-16T13:12:23.651Z,1057.50